createdAt,value
2023-02-04T00:00:06.215Z,5.2
2023-02-04T00:01:05.938Z,5
2023-02-04T00:02:06.611Z,5.2
2023-02-04T00:03:06.357Z,5.2
2023-02-04T00:04:05.783Z,5.2
2023-02-04T00:05:06.481Z,5.2
2023-02-04T00:06:05.804Z,5.2
2023-02-04T00:07:06.356Z,5
2023-02-04T00:08:06.771Z,5.2
2023-02-04T00:09:06.472Z,5.2
2023-02-04T00:10:06.052Z,5.2
2023-02-04T00:11:06.629Z,5
2023-02-04T00:12:06.312Z,5
2023-02-04T00:13:05.901Z,5.2
2023-02-04T00:14:05.998Z,5.2
2023-02-04T00:15:06.563Z,5.2
2023-02-04T00:16:06.940Z,5.2
2023-02-04T00:17:06.129Z,5.2
2023-02-04T00:18:06.689Z,5.2
2023-02-04T00:19:06.272Z,5.2
2023-02-04T00:20:05.650Z,5.2
2023-02-04T00:21:06.355Z,5
2023-02-04T00:22:05.954Z,5.2
2023-02-04T00:23:06.538Z,5.2
2023-02-04T00:24:06.283Z,5.2
2023-02-04T00:25:06.046Z,5.2
2023-02-04T00:26:06.622Z,5.2
2023-02-04T00:27:06.070Z,5.2
2023-02-04T00:28:05.904Z,5.2
2023-02-04T00:29:06.375Z,5.2
2023-02-04T00:30:05.914Z,5.2
2023-02-04T00:31:06.017Z,5.2
2023-02-04T00:32:06.917Z,5.2
2023-02-04T00:33:05.990Z,5.2
2023-02-04T00:34:06.694Z,5.2
2023-02-04T00:35:06.127Z,5.2
2023-02-04T00:36:06.444Z,5.2
2023-02-04T00:37:06.128Z,5.2
2023-02-04T00:38:05.773Z,5.2
2023-02-04T00:39:06.370Z,5.2
2023-02-04T00:40:05.897Z,5.2
2023-02-04T00:41:06.539Z,5
2023-02-04T00:42:05.970Z,5
2023-02-04T00:43:05.750Z,5.2
2023-02-04T00:44:06.688Z,5.2
2023-02-04T00:45:06.310Z,5
2023-02-04T00:46:06.032Z,5.2
2023-02-04T00:47:06.421Z,5.2
2023-02-04T00:48:05.869Z,5.2
2023-02-04T00:49:06.373Z,5.2
2023-02-04T00:50:05.998Z,5
2023-02-04T00:51:06.418Z,5.2
2023-02-04T00:52:05.930Z,5.2
2023-02-04T00:53:05.865Z,5.1
2023-02-04T00:54:06.375Z,5.1
2023-02-04T00:55:06.069Z,5.1
2023-02-04T00:56:06.680Z,5.1
2023-02-04T00:57:06.060Z,5
2023-02-04T00:58:05.838Z,5.1
2023-02-04T00:59:06.368Z,5.1
2023-02-04T01:00:05.911Z,5.1
2023-02-04T01:01:06.013Z,5
2023-02-04T01:02:06.482Z,5.1
2023-02-04T01:03:06.154Z,5.1
2023-02-04T01:04:06.506Z,5
2023-02-04T01:05:06.095Z,5
2023-02-04T01:06:06.674Z,5
2023-02-04T01:07:06.245Z,5
2023-02-04T01:08:05.797Z,5
2023-02-04T01:09:06.349Z,5.1
2023-02-04T01:10:05.793Z,5.1
2023-02-04T01:11:06.580Z,5.1
2023-02-04T01:12:06.219Z,5
2023-02-04T01:13:05.943Z,5.1
2023-02-04T01:14:06.505Z,5.1
2023-02-04T01:15:05.815Z,5.1
2023-02-04T01:16:06.743Z,5.1
2023-02-04T01:17:06.092Z,5
2023-02-04T01:18:06.560Z,5.1
2023-02-04T01:19:06.014Z,5.2
2023-02-04T01:20:05.832Z,5.2
2023-02-04T01:21:06.551Z,5.2
2023-02-04T01:22:06.062Z,5.1
2023-02-04T01:23:06.607Z,5.1
2023-02-04T01:24:06.092Z,5.1
2023-02-04T01:25:05.854Z,5
2023-02-04T01:26:06.283Z,5
2023-02-04T01:27:06.035Z,5
2023-02-04T01:28:06.499Z,5
2023-02-04T01:29:06.022Z,5
2023-02-04T01:30:06.746Z,4.9
2023-02-04T01:31:06.252Z,4.9
2023-02-04T01:32:06.997Z,4.9
2023-02-04T01:33:06.293Z,4.9
2023-02-04T01:34:05.885Z,5
2023-02-04T01:35:06.320Z,4.9
2023-02-04T01:36:06.006Z,4.9
2023-02-04T01:37:05.748Z,4.8
2023-02-04T01:38:06.116Z,4.8
2023-02-04T01:39:05.688Z,4.9
2023-02-04T01:40:06.407Z,4.8
2023-02-04T01:41:05.898Z,4.8
2023-02-04T01:42:05.767Z,4.8
2023-02-04T01:43:06.304Z,4.8
2023-02-04T01:44:05.859Z,4.8
2023-02-04T01:45:06.332Z,4.8
2023-02-04T01:46:06.231Z,4.8
2023-02-04T01:47:06.682Z,4.8
2023-02-04T01:48:06.167Z,4.8
2023-02-04T01:49:06.724Z,4.8
2023-02-04T01:50:06.354Z,4.8
2023-02-04T01:51:05.783Z,4.8
2023-02-04T01:52:06.583Z,4.8
2023-02-04T01:53:06.188Z,4.8
2023-02-04T01:54:06.719Z,4.8
2023-02-04T01:55:06.364Z,4.8
2023-02-04T01:56:05.897Z,4.7
2023-02-04T01:57:06.562Z,5
2023-02-04T01:58:06.268Z,4.7
2023-02-04T01:59:05.768Z,4.7
2023-02-04T02:00:06.327Z,4.6
2023-02-04T02:01:06.388Z,4.6
2023-02-04T02:02:05.970Z,4.6
2023-02-04T02:03:06.646Z,4.6
2023-02-04T02:04:06.155Z,4
2023-02-04T02:05:05.891Z,4.5
2023-02-04T02:06:06.466Z,4.5
2023-02-04T02:07:06.213Z,4
2023-02-04T02:08:05.788Z,4
2023-02-04T02:09:06.473Z,4
2023-02-04T02:10:06.190Z,4.4
2023-02-04T02:11:05.672Z,4
2023-02-04T02:12:06.522Z,4.4
2023-02-04T02:13:06.018Z,4.4
2023-02-04T02:14:06.797Z,4.4
2023-02-04T02:15:06.212Z,4.4
2023-02-04T02:16:06.317Z,4.4
2023-02-04T02:17:06.267Z,4.4
2023-02-04T02:18:06.510Z,4.4
2023-02-04T02:19:06.007Z,4.4
2023-02-04T02:20:05.855Z,4.4
2023-02-04T02:21:06.234Z,4.4
2023-02-04T02:22:05.982Z,4
2023-02-04T02:23:06.410Z,4.4
2023-02-04T02:24:05.922Z,4.4
2023-02-04T02:25:06.430Z,4.4
2023-02-04T02:26:06.259Z,4.4
2023-02-04T02:27:06.011Z,4.4
2023-02-04T02:28:06.677Z,4
2023-02-04T02:29:06.108Z,4.4
2023-02-04T02:30:05.761Z,4.4
2023-02-04T02:31:07.054Z,4.4
2023-02-04T02:32:06.180Z,4.4
2023-02-04T02:33:05.861Z,4
2023-02-04T02:34:06.399Z,4.4
2023-02-04T02:35:06.058Z,4.4
2023-02-04T02:36:06.562Z,4.4
2023-02-04T02:37:06.226Z,4.4
2023-02-04T02:38:05.854Z,4.4
2023-02-04T02:39:06.263Z,4.4
2023-02-04T02:40:05.957Z,4.4
2023-02-04T02:41:06.791Z,4.4
2023-02-04T02:42:06.297Z,4.4
2023-02-04T02:43:05.913Z,4
2023-02-04T02:44:06.323Z,4
2023-02-04T02:45:05.991Z,4
2023-02-04T02:46:06.074Z,4.4
2023-02-04T02:47:06.261Z,4.4
2023-02-04T02:48:06.117Z,4.3
2023-02-04T02:49:06.579Z,4.3
2023-02-04T02:50:06.124Z,4.3
2023-02-04T02:51:06.673Z,4.3
2023-02-04T02:52:06.332Z,4.3
2023-02-04T02:53:05.951Z,4.2
2023-02-04T02:54:06.683Z,4.2
2023-02-04T02:55:05.936Z,4.2
2023-02-04T02:56:05.613Z,4
2023-02-04T02:57:06.174Z,4.2
2023-02-04T02:58:05.522Z,4
2023-02-04T02:59:06.382Z,4.2
2023-02-04T03:00:05.930Z,4.2
2023-02-04T03:01:05.933Z,4.2
2023-02-04T03:02:06.326Z,4.2
2023-02-04T03:03:05.848Z,4.1
2023-02-04T03:04:06.503Z,4.1
2023-02-04T03:05:06.006Z,4.1
2023-02-04T03:06:06.463Z,4.1
2023-02-04T03:07:06.051Z,4.1
2023-02-04T03:08:06.541Z,4
2023-02-04T03:09:06.146Z,4
2023-02-04T03:10:05.919Z,4.1
2023-02-04T03:11:06.277Z,4.1
2023-02-04T03:12:05.755Z,4.1
2023-02-04T03:13:06.297Z,4.1
2023-02-04T03:14:05.960Z,4.2
2023-02-04T03:15:06.448Z,4.1
2023-02-04T03:16:06.702Z,4.1
2023-02-04T03:17:06.206Z,4.1
2023-02-04T03:18:05.752Z,4
2023-02-04T03:19:06.444Z,4
2023-02-04T03:20:05.836Z,4
2023-02-04T03:21:06.620Z,4.1
2023-02-04T03:22:06.108Z,4
2023-02-04T03:23:06.584Z,4
2023-02-04T03:24:06.220Z,4
2023-02-04T03:25:06.558Z,4
2023-02-04T03:26:06.047Z,4
2023-02-04T03:27:06.707Z,4
2023-02-04T03:28:06.391Z,4
2023-02-04T03:29:05.586Z,3.9
2023-02-04T03:30:06.371Z,3.9
2023-02-04T03:31:06.003Z,4
2023-02-04T03:32:06.741Z,4
2023-02-04T03:33:06.078Z,3.8
2023-02-04T03:34:06.684Z,3.8
2023-02-04T03:35:06.083Z,3.8
2023-02-04T03:36:05.614Z,3.8
2023-02-04T03:37:06.343Z,3.8
2023-02-04T03:38:06.019Z,3.8
2023-02-04T03:39:06.606Z,3.8
2023-02-04T03:40:05.929Z,3.8
2023-02-04T03:41:06.546Z,4
2023-02-04T03:42:05.982Z,3.8
2023-02-04T03:43:06.663Z,3.8
2023-02-04T03:44:06.056Z,4
2023-02-04T03:45:06.605Z,3.8
2023-02-04T03:46:06.035Z,3.8
2023-02-04T03:47:06.243Z,3.8
2023-02-04T03:48:06.071Z,3.8
2023-02-04T03:49:06.465Z,3.8
2023-02-04T03:50:06.067Z,3.8
2023-02-04T03:51:05.787Z,3.7
2023-02-04T03:52:06.329Z,3.8
2023-02-04T03:53:05.822Z,3.7
2023-02-04T03:54:06.518Z,3.8
2023-02-04T03:55:05.954Z,3.8
2023-02-04T03:56:06.576Z,3.8
2023-02-04T03:57:06.099Z,3.8
2023-02-04T03:58:06.479Z,3.8
2023-02-04T03:59:06.254Z,3.8
2023-02-04T04:00:06.241Z,3.8
2023-02-04T04:01:06.191Z,3.9
2023-02-04T04:02:05.664Z,4
2023-02-04T04:03:06.937Z,3.9
2023-02-04T04:04:06.091Z,3.9
2023-02-04T04:05:06.622Z,3.9
2023-02-04T04:06:06.317Z,3.9
2023-02-04T04:07:05.773Z,3.9
2023-02-04T04:08:06.500Z,3.9
2023-02-04T04:09:06.109Z,3.8
2023-02-04T04:10:06.731Z,3.9
2023-02-04T04:11:06.239Z,3.9
2023-02-04T04:12:05.717Z,3.9
2023-02-04T04:13:06.362Z,3.9
2023-02-04T04:14:05.934Z,3.9
2023-02-04T04:15:06.563Z,3.9
2023-02-04T04:16:06.595Z,3.9
2023-02-04T04:17:06.120Z,3.9
2023-02-04T04:18:05.832Z,4
2023-02-04T04:19:06.267Z,3.8
2023-02-04T04:20:05.758Z,4
2023-02-04T04:21:06.373Z,4
2023-02-04T04:22:05.949Z,3.8
2023-02-04T04:23:05.826Z,3.8
2023-02-04T04:24:06.126Z,3.8
2023-02-04T04:25:06.700Z,4
2023-02-04T04:26:05.999Z,3.8
2023-02-04T04:27:05.728Z,3.8
2023-02-04T04:28:06.521Z,3.8
2023-02-04T04:29:05.834Z,3.8
2023-02-04T04:30:06.480Z,3.8
2023-02-04T04:31:06.770Z,3.8
2023-02-04T04:32:05.893Z,3.8
2023-02-04T04:33:06.630Z,3.9
2023-02-04T04:34:06.035Z,3.8
2023-02-04T04:35:06.512Z,3.8
2023-02-04T04:36:06.015Z,3.8
2023-02-04T04:37:05.752Z,3.8
2023-02-04T04:38:06.260Z,3.8
2023-02-04T04:39:06.001Z,3.8
2023-02-04T04:40:06.560Z,3.9
2023-02-04T04:41:06.199Z,3.8
2023-02-04T04:42:06.642Z,3.8
2023-02-04T04:43:06.246Z,3.9
2023-02-04T04:44:05.740Z,3.9
2023-02-04T04:45:06.528Z,3.9
2023-02-04T04:46:06.008Z,3.9
2023-02-04T04:47:06.328Z,3.9
2023-02-04T04:48:05.854Z,3.9
2023-02-04T04:49:06.485Z,3.9
2023-02-04T04:50:06.238Z,3.9
2023-02-04T04:51:05.836Z,4
2023-02-04T04:52:06.385Z,4
2023-02-04T04:53:05.897Z,4
2023-02-04T04:54:06.478Z,4
2023-02-04T04:55:06.052Z,4
2023-02-04T04:56:05.750Z,4
2023-02-04T04:57:06.265Z,4
2023-02-04T04:58:05.833Z,4
2023-02-04T04:59:06.352Z,4
2023-02-04T05:00:05.901Z,4
2023-02-04T05:01:06.526Z,4
2023-02-04T05:02:06.096Z,4
2023-02-04T05:03:06.634Z,4
2023-02-04T05:04:06.190Z,3.9
2023-02-04T05:05:06.057Z,3.9
2023-02-04T05:06:06.368Z,3.9
2023-02-04T05:07:06.171Z,3.9
2023-02-04T05:08:05.624Z,3.9
2023-02-04T05:09:06.272Z,3.9
2023-02-04T05:10:05.891Z,3.9
2023-02-04T05:11:06.546Z,3.9
2023-02-04T05:12:06.027Z,3.9
2023-02-04T05:13:06.772Z,3.9
2023-02-04T05:14:06.338Z,3.9
2023-02-04T05:15:05.828Z,3.9
2023-02-04T05:16:06.783Z,3.9
2023-02-04T05:17:06.134Z,4
2023-02-04T05:18:06.013Z,4
2023-02-04T05:19:06.506Z,4
2023-02-04T05:20:06.021Z,3.9
2023-02-04T05:21:06.649Z,3.9
2023-02-04T05:22:06.147Z,3.9
2023-02-04T05:23:09.522Z,4
2023-02-04T05:24:06.101Z,4
2023-02-04T05:25:05.653Z,4
2023-02-04T05:26:06.296Z,3.9
2023-02-04T05:27:05.914Z,3.9
2023-02-04T05:28:06.716Z,3.9
2023-02-04T05:29:06.182Z,4
2023-02-04T05:30:06.696Z,4
2023-02-04T05:31:06.482Z,3.9
2023-02-04T05:32:06.125Z,3.9
2023-02-04T05:33:06.429Z,3.9
2023-02-04T05:34:06.300Z,4
2023-02-04T05:35:07.583Z,3.9
2023-02-04T05:36:06.389Z,4
2023-02-04T05:37:06.233Z,3.9
2023-02-04T05:38:06.503Z,3.9
2023-02-04T05:39:06.024Z,4
2023-02-04T05:40:05.782Z,4
2023-02-04T05:41:06.492Z,4
2023-02-04T05:42:05.831Z,3.9
2023-02-04T05:43:06.544Z,3.9
2023-02-04T05:44:05.979Z,3.9
2023-02-04T05:45:06.508Z,3.9
2023-02-04T05:46:06.904Z,3.9
2023-02-04T05:47:06.120Z,3.9
2023-02-04T05:48:06.535Z,3.9
2023-02-04T05:49:06.159Z,4
2023-02-04T05:50:06.018Z,3.9
2023-02-04T05:51:06.425Z,3.9
2023-02-04T05:52:05.930Z,3.9
2023-02-04T05:53:06.675Z,3.9
2023-02-04T05:54:06.177Z,4
2023-02-04T05:55:06.020Z,3.8
2023-02-04T05:56:06.486Z,3.8
2023-02-04T05:57:06.117Z,3.8
2023-02-04T05:58:06.586Z,3.8
2023-02-04T05:59:06.301Z,3.8
2023-02-04T06:00:05.812Z,3.8
2023-02-04T06:01:06.099Z,3.7
2023-02-04T06:02:05.753Z,3.7
2023-02-04T06:03:06.514Z,3.7
2023-02-04T06:04:06.102Z,3.8
2023-02-04T06:05:06.358Z,4
2023-02-04T06:06:06.010Z,4
2023-02-04T06:07:06.247Z,3.8
2023-02-04T06:08:05.882Z,3.7
2023-02-04T06:09:06.688Z,3.7
2023-02-04T06:10:06.172Z,3.7
2023-02-04T06:11:06.643Z,3.8
2023-02-04T06:12:06.108Z,3.7
2023-02-04T06:13:05.895Z,3.8
2023-02-04T06:14:06.447Z,3.8
2023-02-04T06:15:05.826Z,4
2023-02-04T06:16:06.307Z,3.8
2023-02-04T06:17:05.833Z,3.8
2023-02-04T06:18:06.517Z,3.8
2023-02-04T06:19:06.089Z,3.8
2023-02-04T06:20:06.618Z,4
2023-02-04T06:21:06.198Z,3.8
2023-02-04T06:22:05.697Z,3.8
2023-02-04T06:23:06.189Z,3.8
2023-02-04T06:24:07.463Z,3.8
2023-02-04T06:25:06.405Z,3.8
2023-02-04T06:26:05.878Z,3.8
2023-02-04T06:27:06.350Z,3.8
2023-02-04T06:28:06.295Z,3.8
2023-02-04T06:29:05.797Z,3.8
2023-02-04T06:30:06.440Z,3.8
2023-02-04T06:31:06.565Z,3.8
2023-02-04T06:32:06.712Z,3.8
2023-02-04T06:33:06.199Z,3.8
2023-02-04T06:34:06.685Z,3.8
2023-02-04T06:35:06.299Z,4
2023-02-04T06:36:05.773Z,4
2023-02-04T06:37:06.387Z,4
2023-02-04T06:38:05.922Z,3.9
2023-02-04T06:39:06.359Z,3.9
2023-02-04T06:40:06.008Z,3.9
2023-02-04T06:41:05.759Z,4
2023-02-04T06:42:06.420Z,3.9
2023-02-04T06:43:07.189Z,3.9
2023-02-04T06:44:06.345Z,3.9
2023-02-04T06:45:05.979Z,3.9
2023-02-04T06:46:06.639Z,3.9
2023-02-04T06:47:06.379Z,3.8
2023-02-04T06:48:05.780Z,3.9
2023-02-04T06:49:06.355Z,3.9
2023-02-04T06:50:05.844Z,3.9
2023-02-04T06:51:06.363Z,3.8
2023-02-04T06:52:05.920Z,3.9
2023-02-04T06:53:06.487Z,3.8
2023-02-04T06:54:06.211Z,3.8
2023-02-04T06:55:05.688Z,3.8
2023-02-04T06:56:06.251Z,3.8
2023-02-04T06:57:05.876Z,4
2023-02-04T06:58:06.388Z,3.8
2023-02-04T06:59:07.662Z,3.8
2023-02-04T07:00:06.547Z,3.9
2023-02-04T07:01:06.447Z,3.9
2023-02-04T07:02:05.851Z,3.9
2023-02-04T07:03:06.325Z,3.9
2023-02-04T07:04:05.942Z,3.9
2023-02-04T07:05:06.423Z,3.8
2023-02-04T07:06:06.009Z,3.7
2023-02-04T07:07:06.465Z,3.5
2023-02-04T07:08:05.862Z,3.4
2023-02-04T07:09:06.679Z,3.2
2023-02-04T07:10:06.254Z,3
2023-02-04T07:11:05.761Z,2.9
2023-02-04T07:12:06.401Z,2.9
2023-02-04T07:13:06.147Z,2.8
2023-02-04T07:14:05.827Z,2.7
2023-02-04T07:15:06.453Z,2.7
2023-02-04T07:16:06.113Z,2.6
2023-02-04T07:17:06.562Z,2.6
2023-02-04T07:18:06.024Z,2.6
2023-02-04T07:19:06.473Z,2.5
2023-02-04T07:20:06.211Z,2.5
2023-02-04T07:21:05.634Z,2.5
2023-02-04T07:22:06.511Z,2.5
2023-02-04T07:23:05.841Z,2.4
2023-02-04T07:24:06.682Z,2.4
2023-02-04T07:25:06.010Z,2.5
2023-02-04T07:26:05.583Z,2.5
2023-02-04T07:27:06.929Z,2.5
2023-02-04T07:28:05.822Z,2.5
2023-02-04T07:29:12.190Z,2.5
2023-02-04T07:30:06.017Z,2.4
2023-02-04T07:31:06.226Z,2.5
2023-02-04T07:32:06.922Z,2.4
2023-02-04T07:33:06.231Z,2.4
2023-02-04T07:34:05.785Z,2.5
2023-02-04T07:35:06.320Z,2.4
2023-02-04T07:36:05.626Z,2
2023-02-04T07:37:06.728Z,2.4
2023-02-04T07:38:05.901Z,2.4
2023-02-04T07:39:06.457Z,2
2023-02-04T07:40:06.239Z,2.4
2023-02-04T07:41:06.249Z,2.4
2023-02-04T07:42:06.679Z,2
2023-02-04T07:43:06.092Z,2.4
2023-02-04T07:44:05.812Z,2.4
2023-02-04T07:45:06.289Z,2.4
2023-02-04T07:46:06.025Z,2.4
2023-02-04T07:47:06.273Z,2.4
2023-02-04T07:48:05.994Z,2.4
2023-02-04T07:49:06.686Z,2.4
2023-02-04T07:50:06.213Z,2.4
2023-02-04T07:51:05.815Z,2.4
2023-02-04T07:52:06.442Z,2.4
2023-02-04T07:53:05.804Z,2.4
2023-02-04T07:54:06.510Z,2.4
2023-02-04T07:55:06.123Z,2.4
2023-02-04T07:56:06.382Z,2.4
2023-02-04T07:57:06.339Z,2.4
2023-02-04T07:58:05.938Z,2.4
2023-02-04T07:59:06.421Z,2.4
2023-02-04T08:00:06.199Z,2.4
2023-02-04T08:01:05.897Z,2.4
2023-02-04T08:02:06.172Z,2
2023-02-04T08:03:06.158Z,2.4
2023-02-04T08:04:06.469Z,2.4
2023-02-04T08:05:06.120Z,2.4
2023-02-04T08:06:06.797Z,2.4
2023-02-04T08:07:06.302Z,2.4
2023-02-04T08:08:05.709Z,2.4
2023-02-04T08:09:06.322Z,2.4
2023-02-04T08:10:05.947Z,2.4
2023-02-04T08:11:06.581Z,2.4
2023-02-04T08:12:05.977Z,2.4
2023-02-04T08:13:05.783Z,2.4
2023-02-04T08:14:06.303Z,2.5
2023-02-04T08:15:05.632Z,2.5
2023-02-04T08:16:06.635Z,2.6
2023-02-04T08:17:06.003Z,2.6
2023-02-04T08:18:06.591Z,2.7
2023-02-04T08:19:06.136Z,2.7
2023-02-04T08:20:05.883Z,2.8
2023-02-04T08:21:06.237Z,2.9
2023-02-04T08:22:05.621Z,2.9
2023-02-04T08:23:06.212Z,2.9
2023-02-04T08:24:05.728Z,2.9
2023-02-04T08:25:06.381Z,3
2023-02-04T08:26:05.951Z,3
2023-02-04T08:27:06.561Z,3.1
2023-02-04T08:28:06.382Z,3.1
2023-02-04T08:29:05.691Z,3.1
2023-02-04T08:30:06.244Z,3
2023-02-04T08:31:06.791Z,3
2023-02-04T08:32:06.423Z,3
2023-02-04T08:33:06.003Z,3
2023-02-04T08:34:06.516Z,3
2023-02-04T08:35:08.279Z,3
2023-02-04T08:36:05.697Z,3
2023-02-04T08:37:06.193Z,3
2023-02-04T08:38:05.841Z,3
2023-02-04T08:39:06.201Z,3
2023-02-04T08:40:06.080Z,3
2023-02-04T08:41:06.456Z,3
2023-02-04T08:42:06.118Z,3
2023-02-04T08:43:06.704Z,2.9
2023-02-04T08:44:06.252Z,3
2023-02-04T08:45:05.848Z,3
2023-02-04T08:46:05.967Z,3
2023-02-04T08:47:06.645Z,3
2023-02-04T08:48:06.134Z,3
2023-02-04T08:49:05.833Z,3
2023-02-04T08:50:06.294Z,3.1
2023-02-04T08:51:05.922Z,3.1
2023-02-04T08:52:06.510Z,3.1
2023-02-04T08:53:06.023Z,3.2
2023-02-04T08:54:05.914Z,3.2
2023-02-04T08:55:06.156Z,3.2
2023-02-04T08:56:05.790Z,3.2
2023-02-04T08:57:06.504Z,3
2023-02-04T08:58:06.058Z,3.2
2023-02-04T08:59:06.452Z,3.2
2023-02-04T09:00:06.175Z,3.1
2023-02-04T09:01:06.792Z,3
2023-02-04T09:02:06.307Z,3
2023-02-04T09:03:06.608Z,3.1
2023-02-04T09:04:06.267Z,3.1
2023-02-04T09:05:05.901Z,3.1
2023-02-04T09:06:06.664Z,3.1
2023-02-04T09:07:06.002Z,3.1
2023-02-04T09:08:06.602Z,3.2
2023-02-04T09:09:06.137Z,3.1
2023-02-04T09:10:06.647Z,3.2
2023-02-04T09:11:06.302Z,3.2
2023-02-04T09:12:05.884Z,3.2
2023-02-04T09:13:06.705Z,3
2023-02-04T09:14:06.197Z,3.2
2023-02-04T09:15:05.737Z,3
2023-02-04T09:16:06.602Z,3.2
2023-02-04T09:17:06.069Z,3.2
2023-02-04T09:18:06.480Z,3.2
2023-02-04T09:19:06.014Z,3.2
2023-02-04T09:20:05.823Z,3.2
2023-02-04T09:21:06.351Z,3.2
2023-02-04T09:22:05.973Z,3.3
2023-02-04T09:23:06.443Z,3.3
2023-02-04T09:24:05.952Z,3
2023-02-04T09:25:06.619Z,3.5
2023-02-04T09:26:05.896Z,3.6
2023-02-04T09:27:06.783Z,3.7
2023-02-04T09:28:06.498Z,3.8
2023-02-04T09:29:05.791Z,4
2023-02-04T09:30:06.388Z,4.2
2023-02-04T09:31:08.909Z,4.4
2023-02-04T09:32:06.216Z,4.5
2023-02-04T09:33:05.656Z,4.7
2023-02-04T09:34:06.257Z,4.8
2023-02-04T09:35:05.792Z,4.9
2023-02-04T09:36:06.182Z,4
2023-02-04T09:37:05.838Z,5.2
2023-02-04T09:38:06.326Z,5.4
2023-02-04T09:39:06.086Z,5.6
2023-02-04T09:40:06.472Z,5.7
2023-02-04T09:41:06.137Z,5.8
2023-02-04T09:42:06.757Z,5.9
2023-02-04T09:43:06.167Z,5.9
2023-02-04T09:44:05.732Z,5.8
2023-02-04T09:45:06.216Z,5.8
2023-02-04T09:46:05.973Z,5.7
2023-02-04T09:47:06.428Z,5.6
2023-02-04T09:48:05.946Z,5.6
2023-02-04T09:49:06.455Z,5.5
2023-02-04T09:50:06.090Z,4
2023-02-04T09:51:06.447Z,5.4
2023-02-04T09:52:06.080Z,5.4
2023-02-04T09:53:06.617Z,5.3
2023-02-04T09:54:06.340Z,5.3
2023-02-04T09:55:05.996Z,5.2
2023-02-04T09:56:06.535Z,5.2
2023-02-04T09:57:06.147Z,5.2
2023-02-04T09:58:06.749Z,5.1
2023-02-04T09:59:06.252Z,5.2
2023-02-04T10:00:07.339Z,5.1
2023-02-04T10:01:06.203Z,5.1
2023-02-04T10:02:06.596Z,5.1
2023-02-04T10:03:06.165Z,3
2023-02-04T10:04:06.901Z,5
2023-02-04T10:05:06.064Z,5
2023-02-04T10:06:06.747Z,5
2023-02-04T10:07:06.221Z,5
2023-02-04T10:08:05.872Z,5
2023-02-04T10:09:06.544Z,5
2023-02-04T10:10:06.036Z,5
2023-02-04T10:11:06.606Z,5
2023-02-04T10:12:06.148Z,5
2023-02-04T10:13:05.846Z,5
2023-02-04T10:14:06.462Z,5.1
2023-02-04T10:15:05.845Z,5.1
2023-02-04T10:16:05.873Z,5.1
2023-02-04T10:17:06.612Z,5.1
2023-02-04T10:18:06.002Z,5.1
2023-02-04T10:19:06.530Z,5.1
2023-02-04T10:20:06.155Z,5.2
2023-02-04T10:21:05.704Z,5.2
2023-02-04T10:22:06.346Z,4
2023-02-04T10:23:06.155Z,5.2
2023-02-04T10:24:06.659Z,4
2023-02-04T10:25:06.166Z,5.2
2023-02-04T10:26:05.693Z,5.2
2023-02-04T10:27:06.218Z,5.2
2023-02-04T10:28:06.080Z,5.2
2023-02-04T10:29:07.845Z,5.2
2023-02-04T10:30:05.907Z,5.2
2023-02-04T10:31:06.369Z,5.3
2023-02-04T10:32:06.300Z,5.3
2023-02-04T10:33:06.138Z,5.3
2023-02-04T10:34:05.699Z,5
2023-02-04T10:35:06.225Z,5.4
2023-02-04T10:36:05.857Z,5.5
2023-02-04T10:37:06.131Z,5.6
2023-02-04T10:38:06.310Z,5.6
2023-02-04T10:39:06.629Z,5.7
2023-02-04T10:40:06.134Z,5.7
2023-02-04T10:41:05.552Z,5.7
2023-02-04T10:42:06.401Z,5
2023-02-04T10:43:05.742Z,5.8
2023-02-04T10:44:06.213Z,5.9
2023-02-04T10:45:06.182Z,6
2023-02-04T10:46:06.211Z,6
2023-02-04T10:47:06.635Z,5
2023-02-04T10:48:06.172Z,6
2023-02-04T10:49:06.615Z,6
2023-02-04T10:50:06.495Z,6
2023-02-04T10:51:06.006Z,5.8
2023-02-04T10:52:05.637Z,5.9
2023-02-04T10:53:06.413Z,5.9
2023-02-04T10:54:05.890Z,6
2023-02-04T10:55:06.646Z,6
2023-02-04T10:56:06.204Z,5.9
2023-02-04T10:57:05.775Z,6
2023-02-04T10:58:06.341Z,6
2023-02-04T10:59:05.934Z,6
2023-02-04T11:00:06.267Z,6
2023-02-04T11:01:05.920Z,6
2023-02-04T11:02:06.393Z,5.9
2023-02-04T11:03:06.181Z,6
2023-02-04T11:04:06.554Z,6
2023-02-04T11:05:06.116Z,6
2023-02-04T11:06:06.668Z,6.1
2023-02-04T11:07:06.128Z,6.1
2023-02-04T11:08:05.770Z,6.1
2023-02-04T11:09:06.377Z,6.1
2023-02-04T11:10:05.852Z,6.1
2023-02-04T11:11:06.332Z,6
2023-02-04T11:12:05.949Z,6
2023-02-04T11:13:06.730Z,6
2023-02-04T11:14:06.484Z,6
2023-02-04T11:15:05.727Z,6
2023-02-04T11:16:06.742Z,6
2023-02-04T11:17:06.015Z,6
2023-02-04T11:18:06.449Z,6
2023-02-04T11:19:06.037Z,6
2023-02-04T11:20:05.564Z,5.9
2023-02-04T11:21:06.567Z,5.9
2023-02-04T11:22:05.961Z,5.9
2023-02-04T11:23:06.592Z,5.9
2023-02-04T11:24:06.049Z,5.8
2023-02-04T11:25:06.764Z,5.8
2023-02-04T11:26:06.303Z,5.7
2023-02-04T11:27:05.779Z,5.7
2023-02-04T11:28:06.681Z,5.6
2023-02-04T11:29:05.803Z,5.6
2023-02-04T11:30:06.301Z,5.6
2023-02-04T11:31:06.619Z,5.5
2023-02-04T11:32:06.045Z,5.6
2023-02-04T11:33:06.573Z,5.5
2023-02-04T11:34:06.273Z,5.5
2023-02-04T11:35:05.689Z,5.4
2023-02-04T11:36:06.254Z,5.4
2023-02-04T11:37:05.755Z,5.4
2023-02-04T11:38:06.726Z,5.4
2023-02-04T11:39:05.985Z,5.4
2023-02-04T11:40:05.870Z,5.4
2023-02-04T11:41:06.581Z,5.5
2023-02-04T11:42:05.965Z,5.6
2023-02-04T11:43:06.614Z,5.6
2023-02-04T11:44:05.992Z,5.6
2023-02-04T11:45:05.887Z,5.6
2023-02-04T11:46:06.726Z,5.6
2023-02-04T11:47:06.049Z,5.6
2023-02-04T11:48:05.753Z,5.6
2023-02-04T11:49:06.402Z,5.7
2023-02-04T11:50:06.078Z,5.8
2023-02-04T11:51:05.823Z,5.8
2023-02-04T11:52:06.117Z,5.9
2023-02-04T11:53:05.826Z,6
2023-02-04T11:54:06.286Z,6
2023-02-04T11:55:05.804Z,6
2023-02-04T11:56:06.449Z,6
2023-02-04T11:57:06.072Z,6.1
2023-02-04T11:58:06.567Z,6.1
2023-02-04T11:59:06.297Z,6.1
2023-02-04T12:00:05.738Z,6.1
2023-02-04T12:01:05.720Z,6
2023-02-04T12:02:06.322Z,6
2023-02-04T12:03:06.264Z,6.2
2023-02-04T12:04:06.876Z,6.1
2023-02-04T12:05:06.044Z,6.2
2023-02-04T12:06:06.619Z,6.2
2023-02-04T12:07:06.035Z,6.2
2023-02-04T12:08:06.632Z,6.2
2023-02-04T12:09:06.284Z,7
2023-02-04T12:10:05.704Z,6.1
2023-02-04T12:11:06.164Z,6
2023-02-04T12:12:05.895Z,6
2023-02-04T12:13:06.411Z,6.1
2023-02-04T12:14:05.920Z,6.1
2023-02-04T12:15:06.598Z,6.1
2023-02-04T12:16:06.530Z,6.2
2023-02-04T12:17:05.807Z,6.3
2023-02-04T12:18:06.579Z,6.4
2023-02-04T12:19:05.935Z,6.5
2023-02-04T12:20:06.633Z,6.5
2023-02-04T12:21:06.197Z,6.6
2023-02-04T12:22:05.935Z,6.6
2023-02-04T12:23:06.458Z,6.5
2023-02-04T12:24:06.054Z,6.5
2023-02-04T12:25:06.349Z,6.5
2023-02-04T12:26:07.349Z,6.5
2023-02-04T12:27:05.617Z,6.5
2023-02-04T12:28:06.513Z,6.5
2023-02-04T12:29:05.940Z,6.6
2023-02-04T12:30:06.498Z,6.5
2023-02-04T12:31:06.740Z,6.6
2023-02-04T12:32:06.738Z,6
2023-02-04T12:33:06.113Z,6.6
2023-02-04T12:34:05.723Z,6.5
2023-02-04T12:35:06.414Z,6.5
2023-02-04T12:36:05.920Z,6.5
2023-02-04T12:37:06.411Z,6.5
2023-02-04T12:38:05.961Z,6.6
2023-02-04T12:39:06.486Z,6.6
2023-02-04T12:40:06.155Z,6.6
2023-02-04T12:41:06.635Z,6.7
2023-02-04T12:42:06.165Z,6.7
2023-02-04T12:43:06.648Z,6.7
2023-02-04T12:44:06.296Z,6.7
2023-02-04T12:45:05.796Z,7
2023-02-04T12:46:06.095Z,6.8
2023-02-04T12:47:06.509Z,7
2023-02-04T12:48:06.234Z,6.8
2023-02-04T12:49:06.604Z,6.8
2023-02-04T12:50:06.411Z,6.7
2023-02-04T12:51:06.033Z,6.7
2023-02-04T12:52:06.638Z,6.6
2023-02-04T12:53:06.053Z,5
2023-02-04T12:54:05.745Z,6.6
2023-02-04T12:55:06.394Z,6.6
2023-02-04T12:56:06.055Z,6.6
2023-02-04T12:57:06.677Z,6.6
2023-02-04T12:58:06.085Z,6.5
2023-02-04T12:59:06.689Z,6.6
2023-02-04T13:00:06.239Z,6.5
2023-02-04T13:01:08.881Z,6.4
2023-02-04T13:02:06.429Z,6.4
2023-02-04T13:03:05.788Z,6.4
2023-02-04T13:04:06.333Z,6.5
2023-02-04T13:05:06.030Z,6.5
2023-02-04T13:06:06.515Z,6.5
2023-02-04T13:07:07.868Z,6.4
2023-02-04T13:08:05.766Z,6.4
2023-02-04T13:09:06.286Z,6.4
2023-02-04T13:10:05.888Z,6.3
2023-02-04T13:11:06.492Z,6.4
2023-02-04T13:12:06.543Z,6.3
2023-02-04T13:13:08.696Z,6.4
2023-02-04T13:14:05.680Z,6.4
2023-02-04T13:15:06.244Z,6.3
2023-02-04T13:16:06.226Z,6.3
2023-02-04T13:17:05.741Z,6.3
2023-02-04T13:18:06.183Z,6.3
2023-02-04T13:19:05.828Z,6.3
2023-02-04T13:20:06.405Z,6.3
2023-02-04T13:21:06.004Z,6.2
2023-02-04T13:22:06.408Z,6.1
2023-02-04T13:23:06.000Z,6.1
2023-02-04T13:24:06.599Z,8
2023-02-04T13:25:08.237Z,6
2023-02-04T13:26:05.734Z,5.9
2023-02-04T13:27:06.341Z,5.8
2023-02-04T13:28:05.905Z,5.7
2023-02-04T13:29:06.398Z,5.7
2023-02-04T13:30:05.970Z,5.6
2023-02-04T13:31:08.856Z,5.5
2023-02-04T13:32:06.115Z,5.4
2023-02-04T13:33:05.886Z,5.3
2023-02-04T13:34:06.531Z,5.2
2023-02-04T13:35:06.282Z,5.2
2023-02-04T13:36:05.909Z,5.1
2023-02-04T13:37:05.769Z,5.1
2023-02-04T13:38:06.373Z,7
2023-02-04T13:39:05.745Z,5
2023-02-04T13:40:06.387Z,5.1
2023-02-04T13:41:06.056Z,5.1
2023-02-04T13:42:08.526Z,5.2
2023-02-04T13:43:06.304Z,5.2
2023-02-04T13:44:05.863Z,5.4
2023-02-04T13:45:06.321Z,5.5
2023-02-04T13:46:05.934Z,5.5
2023-02-04T13:47:06.261Z,5.6
2023-02-04T13:48:05.600Z,5.6
2023-02-04T13:49:06.359Z,5.6
2023-02-04T13:50:06.000Z,5.5
2023-02-04T13:51:06.648Z,5.5
2023-02-04T13:52:06.009Z,5.4
2023-02-04T13:53:05.814Z,5.3
2023-02-04T13:54:06.622Z,5.3
2023-02-04T13:55:06.180Z,5
2023-02-04T13:56:05.760Z,5.2
2023-02-04T13:57:06.448Z,5.2
2023-02-04T13:58:05.961Z,5.1
2023-02-04T13:59:06.645Z,5.2